Grandview on Hudson, New York
Current Conditions -  °F | °C
As of 11:56 AM on Friday 31 Oct 2014 (Local Time) from KHPN Reporting Station
Overcast Overcast  
Wind Chill: 50°   Ceiling: 4700
Heat Index: 50°   Visibility: 10mi
Dew Point: 35°   Wind: 5mph
Humidity: 57%   Direction: 70°ENE
Pressure: 29.97"   Gusts: NA
Location:  41.0938°N, 73.9254°W
Report Text: KHPN 311556Z 07004KT 10SM OVC047 10/02 A2997 RMK AO2 SLP151 T01000017
Loading
Personal Weather Stations






























Interactive Weather Map New forecast layout! Learn more

10-Day Weather Forecast

Advertisements
Track Severe Weather on mobile